^^
Meteo Knjazevac Station Historical Data
Daily Summary for January 16, 2021 Units:  Metric    English   Both
Daily Weekly Monthly Yearly Custom
  High: Low: Average:
Temperature: 19.8 °C 16.8 °C 18.4 °C
Dew Point: 14.4 °C 13.3 °C 14.1 °C
Humidity: 80% 70% 76%
Wind Speed: 4.8km/h 1.6km/h 3.9km/h
Wind Gust: 12.9km/h - -
Wind- - West
Pressure: 1017.8 hPa 1017.5 hPa -
Precipitation: 0 mm    
Historical Graphs
 
 
Tabular Data for January 16, 2021
Time Temperature Dew Point Pressure Wind Wind Speed Wind Gust Humidity Rainfall Rate (Hourly) solar Conditions
00:00 19.8 °C 14.2 °C 1017.8 hPa WSW 3.2 km/h 4.8 km/h 70% 0 mm 0 W/m2
00:10 19.6 °C 14.3 °C 1017.8 hPa WNW 4.8 km/h 8 km/h 72% 0 mm 0 W/m2
00:20 19.4 °C 14.3 °C 1017.8 hPa West 4.8 km/h 9.7 km/h 72% 0 mm 0 W/m2
00:30 19.4 °C 14.4 °C 1017.8 hPa West 4.8 km/h 8 km/h 73% 0 mm 0 W/m2
00:40 19.3 °C 14.3 °C 1017.8 hPa West 3.2 km/h 8 km/h 73% 0 mm 0 W/m2
00:50 19.1 °C 14.2 °C 1017.8 hPa West 3.2 km/h 8 km/h 73% 0 mm 0 W/m2
01:00 19.1 °C 14.3 °C 1017.8 hPa West 4.8 km/h 8 km/h 74% 0 mm 0 W/m2
01:10 18.9 °C 14.2 °C 1017.8 hPa WSW 3.2 km/h 8 km/h 74% 0 mm 0 W/m2
01:20 18.6 °C 14.1 °C 1017.5 hPa West 3.2 km/h 6.4 km/h 75% 0 mm 0 W/m2
01:30 18.5 °C 14 °C 1017.5 hPa West 4.8 km/h 8 km/h 75% 0 mm 0 W/m2
01:40 18.4 °C 14.3 °C 1017.5 hPa West 3.2 km/h 8 km/h 77% 0 mm 0 W/m2
01:50 18.3 °C 14.2 °C 1017.5 hPa WNW 4.8 km/h 11.3 km/h 77% 0 mm 0 W/m2
02:00 18.2 °C 14.1 °C 1017.5 hPa West 4.8 km/h 9.7 km/h 77% 0 mm 0 W/m2
02:10 18.1 °C 14 °C 1017.5 hPa West 4.8 km/h 12.9 km/h 77% 0 mm 0 W/m2
02:20 17.9 °C 14 °C 1017.5 hPa WSW 3.2 km/h 9.7 km/h 78% 0 mm 0 W/m2
02:30 17.6 °C 13.7 °C 1017.5 hPa West 3.2 km/h 8 km/h 78% 0 mm 0 W/m2
02:40 17.4 °C 13.7 °C 1017.5 hPa WSW 3.2 km/h 8 km/h 79% 0 mm 0 W/m2
02:50 17.2 °C 13.6 °C 1017.5 hPa West 1.6 km/h 4.8 km/h 79% 0 mm 0 W/m2
03:00 17.1 °C 13.6 °C 1017.5 hPa West 3.2 km/h 6.4 km/h 80% 0 mm 0 W/m2
03:10 16.8 °C 13.3 °C 1017.5 hPa West 3.2 km/h 8 km/h 80% 0 mm 0 W/m2
Knjazevac, Serbia
Compliments of Weather Underground - 2 mb